sensor_id;sensor_type;location;lat;lon;timestamp;P1;durP1;ratioP1;P2;durP2;ratioP2
62151;SDS011;48139;47.474;19.034;2023-06-22T00:02:21;11.07;;;5.45;;
62151;SDS011;48139;47.474;19.034;2023-06-22T00:08:26;9.70;;;4.85;;
62151;SDS011;48139;47.474;19.034;2023-06-22T00:11:29;10.30;;;5.12;;
62151;SDS011;48139;47.474;19.034;2023-06-22T00:14:34;9.90;;;5.57;;
62151;SDS011;48139;47.474;19.034;2023-06-22T00:17:37;8.70;;;4.65;;
62151;SDS011;48139;47.474;19.034;2023-06-22T00:20:40;10.30;;;5.03;;
62151;SDS011;48139;47.474;19.034;2023-06-22T00:23:43;11.55;;;4.55;;
62151;SDS011;48139;47.474;19.034;2023-06-22T00:26:47;12.48;;;4.32;;
62151;SDS011;48139;47.474;19.034;2023-06-22T00:29:51;8.25;;;4.87;;
62151;SDS011;48139;47.474;19.034;2023-06-22T00:32:53;9.85;;;4.40;;
62151;SDS011;48139;47.474;19.034;2023-06-22T00:35:56;12.57;;;4.00;;
62151;SDS011;48139;47.474;19.034;2023-06-22T00:38:59;8.13;;;4.85;;
62151;SDS011;48139;47.474;19.034;2023-06-22T00:42:03;9.35;;;4.78;;
62151;SDS011;48139;47.474;19.034;2023-06-22T00:45:06;10.30;;;4.72;;
62151;SDS011;48139;47.474;19.034;2023-06-22T00:48:09;9.23;;;3.95;;
62151;SDS011;48139;47.474;19.034;2023-06-22T00:51:14;8.30;;;4.12;;
62151;SDS011;48139;47.474;19.034;2023-06-22T00:54:17;10.23;;;4.43;;
62151;SDS011;48139;47.474;19.034;2023-06-22T00:57:28;9.57;;;4.95;;
62151;SDS011;48139;47.474;19.034;2023-06-22T01:06:41;8.73;;;4.80;;
62151;SDS011;48139;47.474;19.034;2023-06-22T01:13:35;8.93;;;5.20;;
62151;SDS011;48139;47.474;19.034;2023-06-22T01:16:49;11.63;;;5.05;;
62151;SDS011;48139;47.474;19.034;2023-06-22T01:19:55;10.45;;;4.78;;
62151;SDS011;48139;47.474;19.034;2023-06-22T01:23:02;9.20;;;4.60;;
62151;SDS011;48139;47.474;19.034;2023-06-22T01:26:17;13.40;;;4.73;;
62151;SDS011;48139;47.474;19.034;2023-06-22T01:29:23;10.43;;;4.20;;
62151;SDS011;48139;47.474;19.034;2023-06-22T01:32:31;9.80;;;4.50;;
62151;SDS011;48139;47.474;19.034;2023-06-22T01:35:36;9.88;;;4.82;;
62151;SDS011;48139;47.474;19.034;2023-06-22T01:38:40;10.25;;;4.30;;
62151;SDS011;48139;47.474;19.034;2023-06-22T01:41:44;12.80;;;5.55;;
62151;SDS011;48139;47.474;19.034;2023-06-22T01:44:49;10.50;;;4.80;;
62151;SDS011;48139;47.474;19.034;2023-06-22T01:47:51;7.80;;;4.62;;
62151;SDS011;48139;47.474;19.034;2023-06-22T01:50:55;10.95;;;4.30;;
62151;SDS011;48139;47.474;19.034;2023-06-22T01:53:57;11.50;;;3.85;;
62151;SDS011;48139;47.474;19.034;2023-06-22T01:57:00;10.15;;;5.87;;
62151;SDS011;48139;47.474;19.034;2023-06-22T02:00:11;8.63;;;3.97;;
62151;SDS011;48139;47.474;19.034;2023-06-22T02:03:19;9.80;;;4.05;;
62151;SDS011;48139;47.474;19.034;2023-06-22T02:06:27;10.60;;;5.18;;
62151;SDS011;48139;47.474;19.034;2023-06-22T02:09:37;10.63;;;5.30;;
62151;SDS011;48139;47.474;19.034;2023-06-22T02:12:42;9.20;;;4.60;;
62151;SDS011;48139;47.474;19.034;2023-06-22T02:15:46;12.48;;;5.45;;
62151;SDS011;48139;47.474;19.034;2023-06-22T02:18:50;8.00;;;5.32;;
62151;SDS011;48139;47.474;19.034;2023-06-22T02:21:53;10.85;;;5.10;;
62151;SDS011;48139;47.474;19.034;2023-06-22T02:24:56;9.52;;;4.00;;
62151;SDS011;48139;47.474;19.034;2023-06-22T02:28:00;9.65;;;3.83;;
62151;SDS011;48139;47.474;19.034;2023-06-22T02:31:02;9.15;;;3.65;;
62151;SDS011;48139;47.474;19.034;2023-06-22T02:34:05;13.23;;;4.85;;
62151;SDS011;48139;47.474;19.034;2023-06-22T02:37:08;9.85;;;4.07;;
62151;SDS011;48139;47.474;19.034;2023-06-22T02:40:14;10.30;;;3.40;;
62151;SDS011;48139;47.474;19.034;2023-06-22T02:43:17;5.72;;;2.80;;
62151;SDS011;48139;47.474;19.034;2023-06-22T02:46:20;7.05;;;3.53;;
62151;SDS011;48139;47.474;19.034;2023-06-22T02:49:23;7.32;;;4.00;;
62151;SDS011;48139;47.474;19.034;2023-06-22T02:52:25;12.60;;;4.20;;
62151;SDS011;48139;47.474;19.034;2023-06-22T02:55:28;9.43;;;4.82;;
62151;SDS011;48139;47.474;19.034;2023-06-22T02:58:31;9.40;;;4.70;;
62151;SDS011;48139;47.474;19.034;2023-06-22T03:01:41;5.78;;;3.05;;
62151;SDS011;48139;47.474;19.034;2023-06-22T03:04:44;9.40;;;3.17;;
62151;SDS011;48139;47.474;19.034;2023-06-22T03:07:47;8.70;;;4.20;;
62151;SDS011;48139;47.474;19.034;2023-06-22T03:10:49;14.20;;;4.03;;
62151;SDS011;48139;47.474;19.034;2023-06-22T03:13:52;11.60;;;3.22;;
62151;SDS011;48139;47.474;19.034;2023-06-22T03:16:55;10.05;;;3.33;;
62151;SDS011;48139;47.474;19.034;2023-06-22T03:20:06;12.05;;;3.87;;
62151;SDS011;48139;47.474;19.034;2023-06-22T03:23:11;9.07;;;3.62;;
62151;SDS011;48139;47.474;19.034;2023-06-22T03:26:16;10.82;;;3.72;;
62151;SDS011;48139;47.474;19.034;2023-06-22T03:29:20;7.37;;;3.17;;
62151;SDS011;48139;47.474;19.034;2023-06-22T03:32:22;8.23;;;3.37;;
62151;SDS011;48139;47.474;19.034;2023-06-22T03:35:25;12.37;;;3.67;;
62151;SDS011;48139;47.474;19.034;2023-06-22T03:38:27;8.63;;;3.08;;
62151;SDS011;48139;47.474;19.034;2023-06-22T03:41:30;7.97;;;3.00;;
62151;SDS011;48139;47.474;19.034;2023-06-22T03:44:33;8.32;;;3.20;;
62151;SDS011;48139;47.474;19.034;2023-06-22T03:47:40;6.00;;;2.83;;
62151;SDS011;48139;47.474;19.034;2023-06-22T03:52:11;6.85;;;2.90;;
62151;SDS011;48139;47.474;19.034;2023-06-22T03:55:15;7.80;;;2.75;;
62151;SDS011;48139;47.474;19.034;2023-06-22T03:58:18;8.85;;;3.70;;
62151;SDS011;48139;47.474;19.034;2023-06-22T04:01:22;6.10;;;2.87;;
62151;SDS011;48139;47.474;19.034;2023-06-22T04:04:25;7.85;;;3.67;;
62151;SDS011;48139;47.474;19.034;2023-06-22T04:07:28;7.60;;;4.53;;
62151;SDS011;48139;47.474;19.034;2023-06-22T04:10:30;12.63;;;4.97;;
62151;SDS011;48139;47.474;19.034;2023-06-22T04:16:36;10.93;;;4.93;;
62151;SDS011;48139;47.474;19.034;2023-06-22T04:19:38;10.55;;;4.55;;
62151;SDS011;48139;47.474;19.034;2023-06-22T04:22:41;7.43;;;3.90;;
62151;SDS011;48139;47.474;19.034;2023-06-22T04:25:43;9.05;;;3.67;;
62151;SDS011;48139;47.474;19.034;2023-06-22T04:28:46;8.95;;;3.10;;
62151;SDS011;48139;47.474;19.034;2023-06-22T04:31:54;8.20;;;3.67;;
62151;SDS011;48139;47.474;19.034;2023-06-22T04:34:58;9.45;;;3.83;;
62151;SDS011;48139;47.474;19.034;2023-06-22T04:38:02;9.85;;;4.62;;
62151;SDS011;48139;47.474;19.034;2023-06-22T04:41:05;9.85;;;4.20;;
62151;SDS011;48139;47.474;19.034;2023-06-22T04:47:15;9.88;;;4.53;;
62151;SDS011;48139;47.474;19.034;2023-06-22T04:50:17;10.32;;;5.15;;
62151;SDS011;48139;47.474;19.034;2023-06-22T04:53:23;8.75;;;5.07;;
62151;SDS011;48139;47.474;19.034;2023-06-22T04:56:32;10.30;;;6.18;;
62151;SDS011;48139;47.474;19.034;2023-06-22T04:59:35;8.43;;;3.70;;
62151;SDS011;48139;47.474;19.034;2023-06-22T05:02:40;13.10;;;5.35;;
62151;SDS011;48139;47.474;19.034;2023-06-22T05:05:44;9.43;;;4.30;;
62151;SDS011;48139;47.474;19.034;2023-06-22T05:08:46;10.10;;;5.28;;
62151;SDS011;48139;47.474;19.034;2023-06-22T05:11:49;11.88;;;5.05;;
62151;SDS011;48139;47.474;19.034;2023-06-22T05:14:52;9.30;;;4.43;;
62151;SDS011;48139;47.474;19.034;2023-06-22T05:20:57;12.00;;;4.28;;
62151;SDS011;48139;47.474;19.034;2023-06-22T05:24:00;11.60;;;5.03;;
62151;SDS011;48139;47.474;19.034;2023-06-22T05:27:05;9.90;;;4.80;;
62151;SDS011;48139;47.474;19.034;2023-06-22T05:33:11;12.63;;;5.45;;
62151;SDS011;48139;47.474;19.034;2023-06-22T05:36:13;10.40;;;4.80;;
62151;SDS011;48139;47.474;19.034;2023-06-22T05:39:16;10.68;;;5.15;;
62151;SDS011;48139;47.474;19.034;2023-06-22T05:42:19;13.13;;;4.00;;
62151;SDS011;48139;47.474;19.034;2023-06-22T05:45:21;12.82;;;5.35;;
62151;SDS011;48139;47.474;19.034;2023-06-22T05:51:26;12.02;;;4.62;;
62151;SDS011;48139;47.474;19.034;2023-06-22T05:54:29;9.90;;;5.00;;
62151;SDS011;48139;47.474;19.034;2023-06-22T06:00:35;12.93;;;4.90;;
62151;SDS011;48139;47.474;19.034;2023-06-22T06:03:38;12.37;;;3.62;;
62151;SDS011;48139;47.474;19.034;2023-06-22T06:06:43;8.35;;;3.85;;
62151;SDS011;48139;47.474;19.034;2023-06-22T06:09:46;11.32;;;4.45;;
62151;SDS011;48139;47.474;19.034;2023-06-22T06:12:50;14.80;;;5.35;;
62151;SDS011;48139;47.474;19.034;2023-06-22T06:15:52;10.05;;;3.65;;
62151;SDS011;48139;47.474;19.034;2023-06-22T06:18:57;7.40;;;3.30;;
62151;SDS011;48139;47.474;19.034;2023-06-22T06:22:01;8.95;;;2.72;;
62151;SDS011;48139;47.474;19.034;2023-06-22T06:25:03;9.25;;;3.78;;
62151;SDS011;48139;47.474;19.034;2023-06-22T06:28:07;7.65;;;4.03;;
62151;SDS011;48139;47.474;19.034;2023-06-22T06:31:09;8.07;;;3.58;;
62151;SDS011;48139;47.474;19.034;2023-06-22T06:37:14;12.07;;;3.17;;
62151;SDS011;48139;47.474;19.034;2023-06-22T06:40:18;10.02;;;3.00;;
62151;SDS011;48139;47.474;19.034;2023-06-22T06:43:20;9.35;;;3.00;;
62151;SDS011;48139;47.474;19.034;2023-06-22T06:49:26;9.30;;;3.97;;
62151;SDS011;48139;47.474;19.034;2023-06-22T06:55:31;12.30;;;3.60;;
62151;SDS011;48139;47.474;19.034;2023-06-22T06:58:35;8.85;;;3.95;;
62151;SDS011;48139;47.474;19.034;2023-06-22T07:01:38;8.05;;;3.92;;
62151;SDS011;48139;47.474;19.034;2023-06-22T07:07:44;8.73;;;2.40;;
62151;SDS011;48139;47.474;19.034;2023-06-22T07:10:46;6.35;;;2.75;;
62151;SDS011;48139;47.474;19.034;2023-06-22T07:13:49;8.38;;;3.65;;
62151;SDS011;48139;47.474;19.034;2023-06-22T07:19:54;6.68;;;3.60;;
62151;SDS011;48139;47.474;19.034;2023-06-22T07:26:00;7.53;;;2.97;;
62151;SDS011;48139;47.474;19.034;2023-06-22T07:29:08;6.22;;;2.75;;
62151;SDS011;48139;47.474;19.034;2023-06-22T07:32:10;6.30;;;2.95;;
62151;SDS011;48139;47.474;19.034;2023-06-22T07:35:13;7.62;;;2.75;;
62151;SDS011;48139;47.474;19.034;2023-06-22T07:38:18;7.40;;;3.47;;
62151;SDS011;48139;47.474;19.034;2023-06-22T07:41:21;7.97;;;3.40;;
62151;SDS011;48139;47.474;19.034;2023-06-22T07:47:26;8.63;;;3.72;;
62151;SDS011;48139;47.474;19.034;2023-06-22T07:50:30;8.80;;;2.70;;
62151;SDS011;48139;47.474;19.034;2023-06-22T07:53:33;10.57;;;3.10;;
62151;SDS011;48139;47.474;19.034;2023-06-22T07:56:36;7.12;;;3.28;;
62151;SDS011;48139;47.474;19.034;2023-06-22T07:59:39;7.22;;;3.15;;
62151;SDS011;48139;47.474;19.034;2023-06-22T08:02:45;7.95;;;3.55;;
62151;SDS011;48139;47.474;19.034;2023-06-22T08:05:49;11.32;;;3.65;;
62151;SDS011;48139;47.474;19.034;2023-06-22T08:08:51;7.57;;;3.35;;
62151;SDS011;48139;47.474;19.034;2023-06-22T08:11:56;7.70;;;3.55;;
62151;SDS011;48139;47.474;19.034;2023-06-22T08:14:59;10.73;;;4.55;;
62151;SDS011;48139;47.474;19.034;2023-06-22T08:21:04;10.27;;;5.25;;
62151;SDS011;48139;47.474;19.034;2023-06-22T08:24:07;14.90;;;6.68;;
62151;SDS011;48139;47.474;19.034;2023-06-22T08:27:11;10.50;;;5.82;;
62151;SDS011;48139;47.474;19.034;2023-06-22T08:30:19;10.95;;;6.32;;
62151;SDS011;48139;47.474;19.034;2023-06-22T08:33:21;10.13;;;6.50;;
62151;SDS011;48139;47.474;19.034;2023-06-22T08:36:30;10.02;;;5.55;;
62151;SDS011;48139;47.474;19.034;2023-06-22T08:39:35;9.57;;;6.25;;
62151;SDS011;48139;47.474;19.034;2023-06-22T08:42:39;10.10;;;6.43;;
62151;SDS011;48139;47.474;19.034;2023-06-22T08:45:42;11.68;;;6.05;;
62151;SDS011;48139;47.474;19.034;2023-06-22T08:48:46;11.52;;;5.95;;
62151;SDS011;48139;47.474;19.034;2023-06-22T08:54:51;10.10;;;5.80;;
62151;SDS011;48139;47.474;19.034;2023-06-22T09:00:57;11.35;;;6.93;;
62151;SDS011;48139;47.474;19.034;2023-06-22T09:04:03;15.75;;;7.05;;
62151;SDS011;48139;47.474;19.034;2023-06-22T09:07:08;14.05;;;6.68;;
62151;SDS011;48139;47.474;19.034;2023-06-22T09:10:10;13.48;;;7.12;;
62151;SDS011;48139;47.474;19.034;2023-06-22T09:13:13;9.60;;;6.47;;
62151;SDS011;48139;47.474;19.034;2023-06-22T09:16:16;9.93;;;5.93;;
62151;SDS011;48139;47.474;19.034;2023-06-22T09:19:18;11.77;;;6.57;;
62151;SDS011;48139;47.474;19.034;2023-06-22T09:25:24;8.73;;;5.75;;
62151;SDS011;48139;47.474;19.034;2023-06-22T09:28:26;12.18;;;6.62;;
62151;SDS011;48139;47.474;19.034;2023-06-22T09:31:30;17.75;;;8.52;;
62151;SDS011;48139;47.474;19.034;2023-06-22T09:40:38;12.00;;;6.80;;
62151;SDS011;48139;47.474;19.034;2023-06-22T09:43:42;9.35;;;5.95;;
62151;SDS011;48139;47.474;19.034;2023-06-22T09:46:44;9.93;;;6.45;;
62151;SDS011;48139;47.474;19.034;2023-06-22T09:49:47;11.93;;;7.50;;
62151;SDS011;48139;47.474;19.034;2023-06-22T09:55:57;9.73;;;6.25;;
62151;SDS011;48139;47.474;19.034;2023-06-22T09:58:59;10.43;;;6.70;;
62151;SDS011;48139;47.474;19.034;2023-06-22T10:02:18;13.15;;;7.00;;
62151;SDS011;48139;47.474;19.034;2023-06-22T10:05:21;13.55;;;6.70;;
62151;SDS011;48139;47.474;19.034;2023-06-22T10:08:24;10.18;;;5.72;;
62151;SDS011;48139;47.474;19.034;2023-06-22T10:11:27;13.40;;;7.37;;
62151;SDS011;48139;47.474;19.034;2023-06-22T10:14:32;14.80;;;7.22;;
62151;SDS011;48139;47.474;19.034;2023-06-22T10:17:35;12.63;;;8.45;;
62151;SDS011;48139;47.474;19.034;2023-06-22T10:23:40;15.00;;;7.12;;
62151;SDS011;48139;47.474;19.034;2023-06-22T10:29:44;11.27;;;7.62;;
62151;SDS011;48139;47.474;19.034;2023-06-22T10:35:50;13.40;;;6.70;;
62151;SDS011;48139;47.474;19.034;2023-06-22T10:38:52;12.75;;;7.53;;
62151;SDS011;48139;47.474;19.034;2023-06-22T10:41:56;9.65;;;7.12;;
62151;SDS011;48139;47.474;19.034;2023-06-22T10:51:03;10.50;;;7.60;;
62151;SDS011;48139;47.474;19.034;2023-06-22T10:54:06;10.57;;;7.40;;
62151;SDS011;48139;47.474;19.034;2023-06-22T10:57:09;14.32;;;8.23;;
62151;SDS011;48139;47.474;19.034;2023-06-22T11:00:13;15.60;;;7.12;;
62151;SDS011;48139;47.474;19.034;2023-06-22T11:03:16;9.48;;;7.22;;
62151;SDS011;48139;47.474;19.034;2023-06-22T11:06:20;9.70;;;6.60;;
62151;SDS011;48139;47.474;19.034;2023-06-22T11:09:25;14.98;;;8.00;;
62151;SDS011;48139;47.474;19.034;2023-06-22T11:12:31;11.63;;;7.20;;
62151;SDS011;48139;47.474;19.034;2023-06-22T11:15:34;13.18;;;7.47;;
62151;SDS011;48139;47.474;19.034;2023-06-22T11:18:37;12.75;;;7.70;;
62151;SDS011;48139;47.474;19.034;2023-06-22T11:21:39;11.23;;;8.27;;
62151;SDS011;48139;47.474;19.034;2023-06-22T11:24:42;11.52;;;7.07;;
62151;SDS011;48139;47.474;19.034;2023-06-22T11:27:45;11.70;;;7.57;;
62151;SDS011;48139;47.474;19.034;2023-06-22T11:30:47;11.65;;;7.37;;
62151;SDS011;48139;47.474;19.034;2023-06-22T11:33:50;12.73;;;7.50;;
62151;SDS011;48139;47.474;19.034;2023-06-22T11:36:54;12.68;;;6.70;;
62151;SDS011;48139;47.474;19.034;2023-06-22T11:39:56;12.60;;;7.78;;
62151;SDS011;48139;47.474;19.034;2023-06-22T11:43:09;11.10;;;8.00;;
62151;SDS011;48139;47.474;19.034;2023-06-22T11:46:12;10.05;;;6.65;;
62151;SDS011;48139;47.474;19.034;2023-06-22T11:49:15;9.77;;;5.95;;
62151;SDS011;48139;47.474;19.034;2023-06-22T11:52:18;10.55;;;7.40;;
62151;SDS011;48139;47.474;19.034;2023-06-22T11:55:22;9.35;;;6.55;;
62151;SDS011;48139;47.474;19.034;2023-06-22T11:58:24;13.70;;;7.82;;
62151;SDS011;48139;47.474;19.034;2023-06-22T12:01:28;11.77;;;6.55;;
62151;SDS011;48139;47.474;19.034;2023-06-22T12:04:31;10.98;;;6.20;;
62151;SDS011;48139;47.474;19.034;2023-06-22T12:07:34;14.82;;;7.28;;
62151;SDS011;48139;47.474;19.034;2023-06-22T12:10:39;11.25;;;6.87;;
62151;SDS011;48139;47.474;19.034;2023-06-22T12:13:42;10.35;;;6.00;;
62151;SDS011;48139;47.474;19.034;2023-06-22T12:16:45;12.63;;;6.65;;
62151;SDS011;48139;47.474;19.034;2023-06-22T12:19:49;12.57;;;7.35;;
62151;SDS011;48139;47.474;19.034;2023-06-22T12:22:52;8.63;;;6.18;;
62151;SDS011;48139;47.474;19.034;2023-06-22T12:26:00;12.85;;;6.85;;
62151;SDS011;48139;47.474;19.034;2023-06-22T12:29:03;8.88;;;6.65;;
62151;SDS011;48139;47.474;19.034;2023-06-22T12:32:06;10.10;;;6.32;;
62151;SDS011;48139;47.474;19.034;2023-06-22T12:35:09;8.43;;;6.10;;
62151;SDS011;48139;47.474;19.034;2023-06-22T12:38:16;11.65;;;6.70;;
62151;SDS011;48139;47.474;19.034;2023-06-22T12:41:19;12.25;;;6.37;;
62151;SDS011;48139;47.474;19.034;2023-06-22T12:44:22;9.40;;;6.25;;
62151;SDS011;48139;47.474;19.034;2023-06-22T12:47:24;20.37;;;6.05;;
62151;SDS011;48139;47.474;19.034;2023-06-22T12:50:27;9.98;;;6.75;;
62151;SDS011;48139;47.474;19.034;2023-06-22T12:53:30;11.65;;;5.90;;
62151;SDS011;48139;47.474;19.034;2023-06-22T12:59:35;9.25;;;5.78;;
62151;SDS011;48139;47.474;19.034;2023-06-22T13:05:40;10.48;;;7.07;;
62151;SDS011;48139;47.474;19.034;2023-06-22T13:08:43;8.68;;;5.68;;
62151;SDS011;48139;47.474;19.034;2023-06-22T13:12:05;10.73;;;6.62;;
62151;SDS011;48139;47.474;19.034;2023-06-22T13:15:08;10.18;;;6.00;;
62151;SDS011;48139;47.474;19.034;2023-06-22T13:18:11;9.30;;;5.70;;
62151;SDS011;48139;47.474;19.034;2023-06-22T13:21:13;14.18;;;5.87;;
62151;SDS011;48139;47.474;19.034;2023-06-22T13:24:16;9.40;;;5.18;;
62151;SDS011;48139;47.474;19.034;2023-06-22T13:27:19;11.52;;;7.43;;
62151;SDS011;48139;47.474;19.034;2023-06-22T13:30:21;10.38;;;7.12;;
62151;SDS011;48139;47.474;19.034;2023-06-22T13:33:24;11.27;;;6.35;;
62151;SDS011;48139;47.474;19.034;2023-06-22T13:36:26;12.07;;;7.30;;
62151;SDS011;48139;47.474;19.034;2023-06-22T13:39:32;11.35;;;6.43;;
62151;SDS011;48139;47.474;19.034;2023-06-22T13:42:35;11.18;;;6.47;;
62151;SDS011;48139;47.474;19.034;2023-06-22T13:45:38;12.20;;;8.60;;
62151;SDS011;48139;47.474;19.034;2023-06-22T13:48:41;13.07;;;7.15;;
62151;SDS011;48139;47.474;19.034;2023-06-22T13:51:43;10.48;;;7.12;;
62151;SDS011;48139;47.474;19.034;2023-06-22T13:54:46;9.75;;;6.20;;
62151;SDS011;48139;47.474;19.034;2023-06-22T13:57:49;10.98;;;6.00;;
62151;SDS011;48139;47.474;19.034;2023-06-22T14:00:53;13.80;;;6.72;;
62151;SDS011;48139;47.474;19.034;2023-06-22T14:03:58;8.57;;;6.10;;
62151;SDS011;48139;47.474;19.034;2023-06-22T14:07:01;10.27;;;7.68;;
62151;SDS011;48139;47.474;19.034;2023-06-22T14:10:04;12.23;;;6.60;;
62151;SDS011;48139;47.474;19.034;2023-06-22T14:13:06;13.85;;;7.82;;
62151;SDS011;48139;47.474;19.034;2023-06-22T14:16:09;14.32;;;7.10;;
62151;SDS011;48139;47.474;19.034;2023-06-22T14:22:14;13.70;;;6.40;;
62151;SDS011;48139;47.474;19.034;2023-06-22T14:25:16;10.25;;;6.68;;
62151;SDS011;48139;47.474;19.034;2023-06-22T14:28:19;8.45;;;5.65;;
62151;SDS011;48139;47.474;19.034;2023-06-22T14:31:22;9.13;;;6.50;;
62151;SDS011;48139;47.474;19.034;2023-06-22T14:34:25;9.45;;;7.25;;
62151;SDS011;48139;47.474;19.034;2023-06-22T14:40:30;8.60;;;6.62;;
62151;SDS011;48139;47.474;19.034;2023-06-22T14:43:45;11.80;;;7.10;;
62151;SDS011;48139;47.474;19.034;2023-06-22T14:46:49;13.25;;;7.15;;
62151;SDS011;48139;47.474;19.034;2023-06-22T14:52:54;10.35;;;5.97;;
62151;SDS011;48139;47.474;19.034;2023-06-22T15:02:01;9.52;;;5.87;;
62151;SDS011;48139;47.474;19.034;2023-06-22T15:05:05;10.32;;;6.57;;
62151;SDS011;48139;47.474;19.034;2023-06-22T15:08:07;9.95;;;6.20;;
62151;SDS011;48139;47.474;19.034;2023-06-22T15:11:13;9.65;;;5.93;;
62151;SDS011;48139;47.474;19.034;2023-06-22T15:14:16;10.80;;;6.62;;
62151;SDS011;48139;47.474;19.034;2023-06-22T15:17:18;18.73;;;7.35;;
62151;SDS011;48139;47.474;19.034;2023-06-22T15:20:21;12.55;;;6.10;;
62151;SDS011;48139;47.474;19.034;2023-06-22T15:23:23;10.05;;;6.60;;
62151;SDS011;48139;47.474;19.034;2023-06-22T15:26:26;11.82;;;6.15;;
62151;SDS011;48139;47.474;19.034;2023-06-22T15:29:30;12.30;;;7.72;;
62151;SDS011;48139;47.474;19.034;2023-06-22T15:32:36;10.02;;;6.80;;
62151;SDS011;48139;47.474;19.034;2023-06-22T15:35:38;11.63;;;7.25;;
62151;SDS011;48139;47.474;19.034;2023-06-22T15:38:41;14.80;;;6.55;;
62151;SDS011;48139;47.474;19.034;2023-06-22T15:41:44;9.95;;;6.95;;
62151;SDS011;48139;47.474;19.034;2023-06-22T15:44:46;12.18;;;7.35;;
62151;SDS011;48139;47.474;19.034;2023-06-22T15:47:49;9.35;;;6.20;;
62151;SDS011;48139;47.474;19.034;2023-06-22T15:50:51;9.38;;;6.20;;
62151;SDS011;48139;47.474;19.034;2023-06-22T15:53:54;11.95;;;7.47;;
62151;SDS011;48139;47.474;19.034;2023-06-22T15:56:59;9.48;;;6.00;;
62151;SDS011;48139;47.474;19.034;2023-06-22T16:00:02;13.25;;;7.97;;
62151;SDS011;48139;47.474;19.034;2023-06-22T16:03:08;11.70;;;6.57;;
62151;SDS011;48139;47.474;19.034;2023-06-22T16:06:11;13.40;;;7.15;;
62151;SDS011;48139;47.474;19.034;2023-06-22T16:09:13;11.35;;;7.50;;
62151;SDS011;48139;47.474;19.034;2023-06-22T16:12:16;12.50;;;6.65;;
62151;SDS011;48139;47.474;19.034;2023-06-22T16:15:19;9.38;;;6.30;;
62151;SDS011;48139;47.474;19.034;2023-06-22T16:18:21;10.32;;;5.85;;
62151;SDS011;48139;47.474;19.034;2023-06-22T16:21:24;10.43;;;5.72;;
62151;SDS011;48139;47.474;19.034;2023-06-22T16:24:26;11.48;;;6.82;;
62151;SDS011;48139;47.474;19.034;2023-06-22T16:27:29;12.50;;;7.05;;
62151;SDS011;48139;47.474;19.034;2023-06-22T16:30:34;11.52;;;7.78;;
62151;SDS011;48139;47.474;19.034;2023-06-22T16:33:36;9.32;;;6.07;;
62151;SDS011;48139;47.474;19.034;2023-06-22T16:36:39;15.02;;;7.15;;
62151;SDS011;48139;47.474;19.034;2023-06-22T16:39:41;15.07;;;6.53;;
62151;SDS011;48139;47.474;19.034;2023-06-22T16:42:45;10.65;;;6.47;;
62151;SDS011;48139;47.474;19.034;2023-06-22T16:45:48;10.60;;;6.75;;
62151;SDS011;48139;47.474;19.034;2023-06-22T16:48:51;13.88;;;7.30;;
62151;SDS011;48139;47.474;19.034;2023-06-22T16:51:54;10.20;;;6.45;;
62151;SDS011;48139;47.474;19.034;2023-06-22T16:54:57;9.82;;;7.07;;
62151;SDS011;48139;47.474;19.034;2023-06-22T16:58:04;9.57;;;6.40;;
62151;SDS011;48139;47.474;19.034;2023-06-22T17:01:06;11.18;;;7.32;;
62151;SDS011;48139;47.474;19.034;2023-06-22T17:04:12;13.50;;;7.05;;
62151;SDS011;48139;47.474;19.034;2023-06-22T17:07:19;13.43;;;7.90;;
62151;SDS011;48139;47.474;19.034;2023-06-22T17:10:23;14.77;;;9.05;;
62151;SDS011;48139;47.474;19.034;2023-06-22T17:13:26;12.43;;;7.45;;
62151;SDS011;48139;47.474;19.034;2023-06-22T17:16:30;10.50;;;6.50;;
62151;SDS011;48139;47.474;19.034;2023-06-22T17:19:36;8.85;;;5.72;;
62151;SDS011;48139;47.474;19.034;2023-06-22T17:22:39;11.98;;;7.00;;
62151;SDS011;48139;47.474;19.034;2023-06-22T17:25:41;11.43;;;7.20;;
62151;SDS011;48139;47.474;19.034;2023-06-22T17:28:48;11.70;;;6.78;;
62151;SDS011;48139;47.474;19.034;2023-06-22T17:31:52;10.95;;;7.47;;
62151;SDS011;48139;47.474;19.034;2023-06-22T17:34:57;11.27;;;7.95;;
62151;SDS011;48139;47.474;19.034;2023-06-22T17:38:00;11.07;;;6.60;;
62151;SDS011;48139;47.474;19.034;2023-06-22T17:41:03;11.55;;;6.75;;
62151;SDS011;48139;47.474;19.034;2023-06-22T17:44:08;12.25;;;7.75;;
62151;SDS011;48139;47.474;19.034;2023-06-22T17:47:11;11.77;;;6.53;;
62151;SDS011;48139;47.474;19.034;2023-06-22T17:50:14;10.07;;;6.72;;
62151;SDS011;48139;47.474;19.034;2023-06-22T17:53:17;10.85;;;7.50;;
62151;SDS011;48139;47.474;19.034;2023-06-22T17:56:20;12.68;;;8.00;;
62151;SDS011;48139;47.474;19.034;2023-06-22T17:59:23;15.27;;;7.03;;
62151;SDS011;48139;47.474;19.034;2023-06-22T18:02:25;9.10;;;6.90;;
62151;SDS011;48139;47.474;19.034;2023-06-22T18:05:35;14.27;;;7.93;;
62151;SDS011;48139;47.474;19.034;2023-06-22T18:08:39;11.43;;;7.30;;
62151;SDS011;48139;47.474;19.034;2023-06-22T18:11:44;11.77;;;7.87;;
62151;SDS011;48139;47.474;19.034;2023-06-22T18:14:57;12.82;;;8.35;;
62151;SDS011;48139;47.474;19.034;2023-06-22T18:18:01;11.77;;;7.25;;
62151;SDS011;48139;47.474;19.034;2023-06-22T18:21:05;10.90;;;8.15;;
62151;SDS011;48139;47.474;19.034;2023-06-22T18:24:09;13.48;;;8.10;;
62151;SDS011;48139;47.474;19.034;2023-06-22T18:27:11;12.23;;;7.85;;
62151;SDS011;48139;47.474;19.034;2023-06-22T18:30:16;13.77;;;8.13;;
62151;SDS011;48139;47.474;19.034;2023-06-22T18:33:20;11.57;;;7.20;;
62151;SDS011;48139;47.474;19.034;2023-06-22T18:36:26;12.32;;;8.07;;
62151;SDS011;48139;47.474;19.034;2023-06-22T18:39:31;14.40;;;7.75;;
62151;SDS011;48139;47.474;19.034;2023-06-22T18:42:39;15.32;;;8.50;;
62151;SDS011;48139;47.474;19.034;2023-06-22T18:45:46;12.45;;;7.07;;
62151;SDS011;48139;47.474;19.034;2023-06-22T18:48:49;14.73;;;8.48;;
62151;SDS011;48139;47.474;19.034;2023-06-22T18:55:17;14.27;;;9.23;;
62151;SDS011;48139;47.474;19.034;2023-06-22T18:58:24;18.45;;;9.70;;
62151;SDS011;48139;47.474;19.034;2023-06-22T19:01:27;13.25;;;8.73;;
62151;SDS011;48139;47.474;19.034;2023-06-22T19:04:34;11.60;;;8.52;;
62151;SDS011;48139;47.474;19.034;2023-06-22T19:11:06;13.73;;;8.20;;
62151;SDS011;48139;47.474;19.034;2023-06-22T19:14:20;11.43;;;7.20;;
62151;SDS011;48139;47.474;19.034;2023-06-22T19:17:23;14.30;;;8.55;;
62151;SDS011;48139;47.474;19.034;2023-06-22T19:20:31;16.92;;;9.43;;
62151;SDS011;48139;47.474;19.034;2023-06-22T19:23:39;15.20;;;9.75;;
62151;SDS011;48139;47.474;19.034;2023-06-22T19:26:50;15.15;;;9.13;;
62151;SDS011;48139;47.474;19.034;2023-06-22T19:29:53;13.77;;;8.65;;
62151;SDS011;48139;47.474;19.034;2023-06-22T19:32:56;12.45;;;7.57;;
62151;SDS011;48139;47.474;19.034;2023-06-22T19:36:01;15.75;;;9.18;;
62151;SDS011;48139;47.474;19.034;2023-06-22T19:39:05;13.05;;;9.25;;
62151;SDS011;48139;47.474;19.034;2023-06-22T19:42:08;12.60;;;9.05;;
62151;SDS011;48139;47.474;19.034;2023-06-22T19:45:14;12.48;;;8.93;;
62151;SDS011;48139;47.474;19.034;2023-06-22T19:48:18;17.08;;;9.07;;
62151;SDS011;48139;47.474;19.034;2023-06-22T19:51:21;12.23;;;8.82;;
62151;SDS011;48139;47.474;19.034;2023-06-22T19:57:27;14.98;;;8.93;;
62151;SDS011;48139;47.474;19.034;2023-06-22T20:00:29;12.63;;;7.03;;
62151;SDS011;48139;47.474;19.034;2023-06-22T20:03:35;15.80;;;9.85;;